sensor_id;sensor_type;location;lat;lon;timestamp;temperature;humidity
27226;DHT22;14732;51.074;3.788;2023-11-19T00:02:13;14.70;99.90
27226;DHT22;14732;51.074;3.788;2023-11-19T00:04:39;14.70;99.90
27226;DHT22;14732;51.074;3.788;2023-11-19T00:07:05;14.70;99.90
27226;DHT22;14732;51.074;3.788;2023-11-19T00:09:35;14.60;99.90
27226;DHT22;14732;51.074;3.788;2023-11-19T00:12:03;14.50;99.90
27226;DHT22;14732;51.074;3.788;2023-11-19T00:14:29;14.40;99.90
27226;DHT22;14732;51.074;3.788;2023-11-19T00:16:56;14.50;99.90
27226;DHT22;14732;51.074;3.788;2023-11-19T00:19:21;14.50;99.90
27226;DHT22;14732;51.074;3.788;2023-11-19T00:21:47;14.40;99.90
27226;DHT22;14732;51.074;3.788;2023-11-19T00:24:13;14.40;99.90
27226;DHT22;14732;51.074;3.788;2023-11-19T00:26:42;14.30;99.90
27226;DHT22;14732;51.074;3.788;2023-11-19T00:29:07;14.20;99.90
27226;DHT22;14732;51.074;3.788;2023-11-19T00:31:33;14.30;99.90
27226;DHT22;14732;51.074;3.788;2023-11-19T00:33:59;14.20;99.90
27226;DHT22;14732;51.074;3.788;2023-11-19T00:36:24;14.30;99.90
27226;DHT22;14732;51.074;3.788;2023-11-19T00:38:51;14.20;99.90
27226;DHT22;14732;51.074;3.788;2023-11-19T00:41:18;14.30;99.90
27226;DHT22;14732;51.074;3.788;2023-11-19T00:43:44;14.20;99.90
27226;DHT22;14732;51.074;3.788;2023-11-19T00:46:10;14.10;99.90
27226;DHT22;14732;51.074;3.788;2023-11-19T00:48:39;14.00;99.90
27226;DHT22;14732;51.074;3.788;2023-11-19T00:51:05;14.00;99.90
27226;DHT22;14732;51.074;3.788;2023-11-19T00:53:31;14.10;99.90
27226;DHT22;14732;51.074;3.788;2023-11-19T00:55:57;14.30;99.90
27226;DHT22;14732;51.074;3.788;2023-11-19T00:58:23;14.40;99.90
27226;DHT22;14732;51.074;3.788;2023-11-19T01:00:49;14.40;99.90
27226;DHT22;14732;51.074;3.788;2023-11-19T01:03:15;14.40;99.90
27226;DHT22;14732;51.074;3.788;2023-11-19T01:05:41;14.50;99.90
27226;DHT22;14732;51.074;3.788;2023-11-19T01:08:07;14.50;99.90
27226;DHT22;14732;51.074;3.788;2023-11-19T01:10:33;14.50;99.90
27226;DHT22;14732;51.074;3.788;2023-11-19T01:12:59;14.40;99.90
27226;DHT22;14732;51.074;3.788;2023-11-19T01:15:25;14.30;99.90
27226;DHT22;14732;51.074;3.788;2023-11-19T01:17:51;14.20;99.90
27226;DHT22;14732;51.074;3.788;2023-11-19T01:20:17;14.20;99.90
27226;DHT22;14732;51.074;3.788;2023-11-19T01:22:43;14.10;99.90
27226;DHT22;14732;51.074;3.788;2023-11-19T01:25:09;14.00;99.90
27226;DHT22;14732;51.074;3.788;2023-11-19T01:27:34;14.20;99.90
27226;DHT22;14732;51.074;3.788;2023-11-19T01:30:02;14.20;99.90
27226;DHT22;14732;51.074;3.788;2023-11-19T01:32:29;14.10;99.90
27226;DHT22;14732;51.074;3.788;2023-11-19T01:34:55;14.10;99.90
27226;DHT22;14732;51.074;3.788;2023-11-19T01:37:20;14.10;99.90
27226;DHT22;14732;51.074;3.788;2023-11-19T01:39:46;14.20;99.90
27226;DHT22;14732;51.074;3.788;2023-11-19T01:42:11;14.10;99.90
27226;DHT22;14732;51.074;3.788;2023-11-19T01:44:38;14.40;99.90
27226;DHT22;14732;51.074;3.788;2023-11-19T01:47:03;14.30;99.90
27226;DHT22;14732;51.074;3.788;2023-11-19T01:49:32;14.30;99.90
27226;DHT22;14732;51.074;3.788;2023-11-19T01:51:58;14.20;99.90
27226;DHT22;14732;51.074;3.788;2023-11-19T01:54:25;14.10;99.90
27226;DHT22;14732;51.074;3.788;2023-11-19T01:56:53;13.90;99.90
27226;DHT22;14732;51.074;3.788;2023-11-19T01:59:19;14.00;99.90
27226;DHT22;14732;51.074;3.788;2023-11-19T02:01:52;14.10;99.90
27226;DHT22;14732;51.074;3.788;2023-11-19T02:04:18;13.90;99.90
27226;DHT22;14732;51.074;3.788;2023-11-19T02:06:45;13.80;99.90
27226;DHT22;14732;51.074;3.788;2023-11-19T02:09:11;13.80;99.90
27226;DHT22;14732;51.074;3.788;2023-11-19T02:11:40;14.10;99.90
27226;DHT22;14732;51.074;3.788;2023-11-19T02:14:05;14.10;99.90
27226;DHT22;14732;51.074;3.788;2023-11-19T02:16:32;13.90;99.90
27226;DHT22;14732;51.074;3.788;2023-11-19T02:18:57;13.90;99.90
27226;DHT22;14732;51.074;3.788;2023-11-19T02:21:23;13.80;99.90
27226;DHT22;14732;51.074;3.788;2023-11-19T02:23:49;13.60;99.90
27226;DHT22;14732;51.074;3.788;2023-11-19T02:26:39;13.60;99.90
27226;DHT22;14732;51.074;3.788;2023-11-19T02:29:05;13.50;99.90
27226;DHT22;14732;51.074;3.788;2023-11-19T02:31:32;13.40;99.90
27226;DHT22;14732;51.074;3.788;2023-11-19T02:33:59;13.60;99.90
27226;DHT22;14732;51.074;3.788;2023-11-19T02:36:25;13.60;99.90
27226;DHT22;14732;51.074;3.788;2023-11-19T02:38:51;13.60;99.90
27226;DHT22;14732;51.074;3.788;2023-11-19T02:41:16;13.70;99.90
27226;DHT22;14732;51.074;3.788;2023-11-19T02:43:42;13.70;99.90
27226;DHT22;14732;51.074;3.788;2023-11-19T02:46:08;13.80;99.90
27226;DHT22;14732;51.074;3.788;2023-11-19T02:48:34;13.90;99.90
27226;DHT22;14732;51.074;3.788;2023-11-19T02:51:03;14.00;99.90
27226;DHT22;14732;51.074;3.788;2023-11-19T02:53:32;14.00;99.90
27226;DHT22;14732;51.074;3.788;2023-11-19T02:55:58;14.00;99.90
27226;DHT22;14732;51.074;3.788;2023-11-19T02:58:31;13.90;99.90
27226;DHT22;14732;51.074;3.788;2023-11-19T03:00:57;13.70;99.90
27226;DHT22;14732;51.074;3.788;2023-11-19T03:03:25;13.60;99.90
27226;DHT22;14732;51.074;3.788;2023-11-19T03:05:56;13.40;99.90
27226;DHT22;14732;51.074;3.788;2023-11-19T03:08:22;13.40;99.90
27226;DHT22;14732;51.074;3.788;2023-11-19T03:10:48;13.40;99.90
27226;DHT22;14732;51.074;3.788;2023-11-19T03:13:14;13.30;99.90
27226;DHT22;14732;51.074;3.788;2023-11-19T03:15:41;13.30;99.90
27226;DHT22;14732;51.074;3.788;2023-11-19T03:18:07;13.20;99.90
27226;DHT22;14732;51.074;3.788;2023-11-19T03:20:33;13.30;99.90
27226;DHT22;14732;51.074;3.788;2023-11-19T03:22:59;13.30;99.90
27226;DHT22;14732;51.074;3.788;2023-11-19T03:25:27;13.40;99.90
27226;DHT22;14732;51.074;3.788;2023-11-19T03:27:58;13.40;99.90
27226;DHT22;14732;51.074;3.788;2023-11-19T03:30:24;13.40;99.90
27226;DHT22;14732;51.074;3.788;2023-11-19T03:32:50;13.40;99.90
27226;DHT22;14732;51.074;3.788;2023-11-19T03:35:16;13.30;99.90
27226;DHT22;14732;51.074;3.788;2023-11-19T03:37:41;13.10;99.90
27226;DHT22;14732;51.074;3.788;2023-11-19T03:40:09;13.10;99.90
27226;DHT22;14732;51.074;3.788;2023-11-19T03:42:35;13.20;99.90
27226;DHT22;14732;51.074;3.788;2023-11-19T03:45:01;13.10;99.90
27226;DHT22;14732;51.074;3.788;2023-11-19T03:47:29;13.20;99.90
27226;DHT22;14732;51.074;3.788;2023-11-19T03:49:54;13.10;99.90
27226;DHT22;14732;51.074;3.788;2023-11-19T03:52:20;13.00;99.90
27226;DHT22;14732;51.074;3.788;2023-11-19T03:54:46;13.10;99.90
27226;DHT22;14732;51.074;3.788;2023-11-19T03:57:12;12.90;99.90
27226;DHT22;14732;51.074;3.788;2023-11-19T03:59:39;13.00;99.90
27226;DHT22;14732;51.074;3.788;2023-11-19T04:02:05;12.80;99.90
27226;DHT22;14732;51.074;3.788;2023-11-19T04:04:31;12.90;99.90
27226;DHT22;14732;51.074;3.788;2023-11-19T04:06:57;12.80;99.90
27226;DHT22;14732;51.074;3.788;2023-11-19T04:09:23;12.80;99.90
27226;DHT22;14732;51.074;3.788;2023-11-19T04:11:49;12.80;99.90
27226;DHT22;14732;51.074;3.788;2023-11-19T04:14:15;12.90;99.90
27226;DHT22;14732;51.074;3.788;2023-11-19T04:16:43;12.90;99.90
27226;DHT22;14732;51.074;3.788;2023-11-19T04:19:10;12.90;99.90
27226;DHT22;14732;51.074;3.788;2023-11-19T04:21:35;12.90;99.90
27226;DHT22;14732;51.074;3.788;2023-11-19T04:24:01;13.00;99.90
27226;DHT22;14732;51.074;3.788;2023-11-19T04:26:27;12.70;99.90
27226;DHT22;14732;51.074;3.788;2023-11-19T04:28:52;12.50;99.90
27226;DHT22;14732;51.074;3.788;2023-11-19T04:31:18;12.60;99.90
27226;DHT22;14732;51.074;3.788;2023-11-19T04:33:44;12.60;99.90
27226;DHT22;14732;51.074;3.788;2023-11-19T04:36:10;12.60;99.90
27226;DHT22;14732;51.074;3.788;2023-11-19T04:38:36;12.70;99.90
27226;DHT22;14732;51.074;3.788;2023-11-19T04:41:04;12.60;99.90
27226;DHT22;14732;51.074;3.788;2023-11-19T04:43:31;12.70;99.90
27226;DHT22;14732;51.074;3.788;2023-11-19T04:45:57;12.80;99.90
27226;DHT22;14732;51.074;3.788;2023-11-19T04:48:23;12.70;99.90
27226;DHT22;14732;51.074;3.788;2023-11-19T04:50:49;12.50;99.90
27226;DHT22;14732;51.074;3.788;2023-11-19T04:53:16;12.50;99.90
27226;DHT22;14732;51.074;3.788;2023-11-19T04:55:42;12.30;99.90
27226;DHT22;14732;51.074;3.788;2023-11-19T04:58:08;12.40;99.90
27226;DHT22;14732;51.074;3.788;2023-11-19T05:00:34;12.40;99.90
27226;DHT22;14732;51.074;3.788;2023-11-19T05:03:00;12.50;99.90
27226;DHT22;14732;51.074;3.788;2023-11-19T05:05:25;12.50;99.90
27226;DHT22;14732;51.074;3.788;2023-11-19T05:07:51;12.50;99.90
27226;DHT22;14732;51.074;3.788;2023-11-19T05:10:17;12.60;99.90
27226;DHT22;14732;51.074;3.788;2023-11-19T05:12:42;12.60;99.90
27226;DHT22;14732;51.074;3.788;2023-11-19T05:15:08;12.70;99.90
27226;DHT22;14732;51.074;3.788;2023-11-19T05:17:34;12.70;99.90
27226;DHT22;14732;51.074;3.788;2023-11-19T05:20:00;12.80;99.90
27226;DHT22;14732;51.074;3.788;2023-11-19T05:22:25;12.90;99.90
27226;DHT22;14732;51.074;3.788;2023-11-19T05:24:51;12.70;99.90
27226;DHT22;14732;51.074;3.788;2023-11-19T05:27:17;12.80;99.90
27226;DHT22;14732;51.074;3.788;2023-11-19T05:29:43;12.80;99.90
27226;DHT22;14732;51.074;3.788;2023-11-19T05:32:09;12.60;99.90
27226;DHT22;14732;51.074;3.788;2023-11-19T05:34:35;12.70;99.90
27226;DHT22;14732;51.074;3.788;2023-11-19T05:37:01;12.70;99.90
27226;DHT22;14732;51.074;3.788;2023-11-19T05:39:28;12.60;99.90
27226;DHT22;14732;51.074;3.788;2023-11-19T05:41:53;12.50;99.90
27226;DHT22;14732;51.074;3.788;2023-11-19T05:44:19;12.70;99.90
27226;DHT22;14732;51.074;3.788;2023-11-19T05:46:45;12.80;99.90
27226;DHT22;14732;51.074;3.788;2023-11-19T05:49:11;12.70;99.90
27226;DHT22;14732;51.074;3.788;2023-11-19T05:51:41;12.60;99.90
27226;DHT22;14732;51.074;3.788;2023-11-19T05:54:09;12.70;99.90
27226;DHT22;14732;51.074;3.788;2023-11-19T05:56:36;12.60;99.90
27226;DHT22;14732;51.074;3.788;2023-11-19T05:59:02;12.50;99.90
27226;DHT22;14732;51.074;3.788;2023-11-19T06:01:29;12.40;99.90
27226;DHT22;14732;51.074;3.788;2023-11-19T06:03:55;12.40;99.90
27226;DHT22;14732;51.074;3.788;2023-11-19T06:06:20;12.50;99.90
27226;DHT22;14732;51.074;3.788;2023-11-19T06:08:46;12.40;99.90
27226;DHT22;14732;51.074;3.788;2023-11-19T06:11:12;12.30;99.90
27226;DHT22;14732;51.074;3.788;2023-11-19T06:13:44;12.40;99.90
27226;DHT22;14732;51.074;3.788;2023-11-19T06:16:10;12.30;99.90
27226;DHT22;14732;51.074;3.788;2023-11-19T06:18:39;12.30;99.90
27226;DHT22;14732;51.074;3.788;2023-11-19T06:21:04;12.10;99.90
27226;DHT22;14732;51.074;3.788;2023-11-19T06:23:31;12.20;99.90
27226;DHT22;14732;51.074;3.788;2023-11-19T06:25:57;12.10;99.90
27226;DHT22;14732;51.074;3.788;2023-11-19T06:28:22;12.20;99.90
27226;DHT22;14732;51.074;3.788;2023-11-19T06:30:48;12.20;99.90
27226;DHT22;14732;51.074;3.788;2023-11-19T06:33:14;12.10;99.90
27226;DHT22;14732;51.074;3.788;2023-11-19T06:35:40;12.20;99.90
27226;DHT22;14732;51.074;3.788;2023-11-19T06:38:05;12.20;99.90
27226;DHT22;14732;51.074;3.788;2023-11-19T06:40:35;12.20;99.90
27226;DHT22;14732;51.074;3.788;2023-11-19T06:43:00;12.20;99.90
27226;DHT22;14732;51.074;3.788;2023-11-19T06:45:28;12.10;99.90
27226;DHT22;14732;51.074;3.788;2023-11-19T06:47:53;12.10;99.90
27226;DHT22;14732;51.074;3.788;2023-11-19T06:50:19;12.10;99.90
27226;DHT22;14732;51.074;3.788;2023-11-19T06:52:45;12.20;99.90
27226;DHT22;14732;51.074;3.788;2023-11-19T06:55:11;12.30;99.90
27226;DHT22;14732;51.074;3.788;2023-11-19T06:57:37;12.30;99.90
27226;DHT22;14732;51.074;3.788;2023-11-19T07:00:03;12.20;99.90
27226;DHT22;14732;51.074;3.788;2023-11-19T07:02:31;12.10;99.90
27226;DHT22;14732;51.074;3.788;2023-11-19T07:04:57;12.00;99.90
27226;DHT22;14732;51.074;3.788;2023-11-19T07:07:22;12.00;99.90
27226;DHT22;14732;51.074;3.788;2023-11-19T07:09:48;12.00;99.90
27226;DHT22;14732;51.074;3.788;2023-11-19T07:12:14;12.10;99.90
27226;DHT22;14732;51.074;3.788;2023-11-19T07:14:40;12.20;99.90
27226;DHT22;14732;51.074;3.788;2023-11-19T07:17:07;12.20;99.90
27226;DHT22;14732;51.074;3.788;2023-11-19T07:19:34;12.10;99.90
27226;DHT22;14732;51.074;3.788;2023-11-19T07:22:02;12.20;99.90
27226;DHT22;14732;51.074;3.788;2023-11-19T07:24:27;12.20;99.90
27226;DHT22;14732;51.074;3.788;2023-11-19T07:26:54;12.20;99.90
27226;DHT22;14732;51.074;3.788;2023-11-19T07:29:20;12.20;99.90
27226;DHT22;14732;51.074;3.788;2023-11-19T07:31:48;12.30;99.90
27226;DHT22;14732;51.074;3.788;2023-11-19T07:34:14;12.20;99.90
27226;DHT22;14732;51.074;3.788;2023-11-19T07:36:40;12.20;99.90
27226;DHT22;14732;51.074;3.788;2023-11-19T07:39:06;12.30;99.90
27226;DHT22;14732;51.074;3.788;2023-11-19T07:41:32;12.40;99.90
27226;DHT22;14732;51.074;3.788;2023-11-19T07:43:58;12.40;99.90
27226;DHT22;14732;51.074;3.788;2023-11-19T07:46:24;12.30;99.90
27226;DHT22;14732;51.074;3.788;2023-11-19T07:48:50;12.20;99.90
27226;DHT22;14732;51.074;3.788;2023-11-19T07:51:16;12.20;99.90
27226;DHT22;14732;51.074;3.788;2023-11-19T07:53:42;12.30;99.90
27226;DHT22;14732;51.074;3.788;2023-11-19T07:56:08;12.30;99.90
27226;DHT22;14732;51.074;3.788;2023-11-19T07:58:34;12.20;99.90
27226;DHT22;14732;51.074;3.788;2023-11-19T08:01:00;12.20;99.90
27226;DHT22;14732;51.074;3.788;2023-11-19T08:03:25;12.10;99.90
27226;DHT22;14732;51.074;3.788;2023-11-19T08:05:51;12.10;99.90
27226;DHT22;14732;51.074;3.788;2023-11-19T08:08:17;12.30;99.90
27226;DHT22;14732;51.074;3.788;2023-11-19T08:10:43;12.30;99.90
27226;DHT22;14732;51.074;3.788;2023-11-19T08:13:10;12.40;99.90
27226;DHT22;14732;51.074;3.788;2023-11-19T08:15:36;12.60;99.90
27226;DHT22;14732;51.074;3.788;2023-11-19T08:18:02;12.70;99.90
27226;DHT22;14732;51.074;3.788;2023-11-19T08:20:27;12.90;99.90
27226;DHT22;14732;51.074;3.788;2023-11-19T08:22:53;13.00;99.90
27226;DHT22;14732;51.074;3.788;2023-11-19T08:25:19;13.10;99.90
27226;DHT22;14732;51.074;3.788;2023-11-19T08:27:44;13.10;99.90
27226;DHT22;14732;51.074;3.788;2023-11-19T08:30:11;13.20;99.90
27226;DHT22;14732;51.074;3.788;2023-11-19T08:32:37;13.30;99.90
27226;DHT22;14732;51.074;3.788;2023-11-19T08:35:03;13.30;99.90
27226;DHT22;14732;51.074;3.788;2023-11-19T08:37:28;13.50;99.90
27226;DHT22;14732;51.074;3.788;2023-11-19T08:39:54;13.50;99.90
27226;DHT22;14732;51.074;3.788;2023-11-19T08:42:19;13.70;99.90
27226;DHT22;14732;51.074;3.788;2023-11-19T08:44:50;13.60;99.90
27226;DHT22;14732;51.074;3.788;2023-11-19T08:47:16;13.70;99.90
27226;DHT22;14732;51.074;3.788;2023-11-19T08:49:45;14.00;99.90
27226;DHT22;14732;51.074;3.788;2023-11-19T08:52:12;14.30;99.90
27226;DHT22;14732;51.074;3.788;2023-11-19T08:54:37;15.20;99.90
27226;DHT22;14732;51.074;3.788;2023-11-19T08:57:03;16.10;99.90
27226;DHT22;14732;51.074;3.788;2023-11-19T08:59:30;16.60;99.90
27226;DHT22;14732;51.074;3.788;2023-11-19T09:01:55;17.00;99.90
27226;DHT22;14732;51.074;3.788;2023-11-19T09:04:21;17.40;99.90
27226;DHT22;14732;51.074;3.788;2023-11-19T09:06:51;17.50;99.90
27226;DHT22;14732;51.074;3.788;2023-11-19T09:09:16;17.30;99.90
27226;DHT22;14732;51.074;3.788;2023-11-19T09:11:42;16.60;99.90
27226;DHT22;14732;51.074;3.788;2023-11-19T09:14:08;16.30;99.90
27226;DHT22;14732;51.074;3.788;2023-11-19T09:16:34;16.00;99.90
27226;DHT22;14732;51.074;3.788;2023-11-19T09:19:00;15.70;99.90
27226;DHT22;14732;51.074;3.788;2023-11-19T09:21:26;15.30;99.90
27226;DHT22;14732;51.074;3.788;2023-11-19T09:23:52;15.10;99.90
27226;DHT22;14732;51.074;3.788;2023-11-19T09:26:19;14.90;99.90
27226;DHT22;14732;51.074;3.788;2023-11-19T09:28:45;14.90;99.90
27226;DHT22;14732;51.074;3.788;2023-11-19T09:31:17;14.80;99.90
27226;DHT22;14732;51.074;3.788;2023-11-19T09:33:44;14.60;99.90
27226;DHT22;14732;51.074;3.788;2023-11-19T09:36:12;14.30;99.90
27226;DHT22;14732;51.074;3.788;2023-11-19T09:38:45;14.10;99.90
27226;DHT22;14732;51.074;3.788;2023-11-19T09:41:11;13.80;99.90
27226;DHT22;14732;51.074;3.788;2023-11-19T09:43:42;13.50;99.90
27226;DHT22;14732;51.074;3.788;2023-11-19T09:46:15;13.40;99.90
27226;DHT22;14732;51.074;3.788;2023-11-19T09:48:42;13.70;99.90
27226;DHT22;14732;51.074;3.788;2023-11-19T09:51:11;13.90;99.90
27226;DHT22;14732;51.074;3.788;2023-11-19T09:53:37;14.00;99.90
27226;DHT22;14732;51.074;3.788;2023-11-19T09:56:04;14.00;99.90
27226;DHT22;14732;51.074;3.788;2023-11-19T09:58:31;14.20;99.90
27226;DHT22;14732;51.074;3.788;2023-11-19T10:00:58;14.20;99.90
27226;DHT22;14732;51.074;3.788;2023-11-19T10:03:32;14.00;99.90
27226;DHT22;14732;51.074;3.788;2023-11-19T10:05:59;14.00;99.90
27226;DHT22;14732;51.074;3.788;2023-11-19T10:08:26;13.90;99.90
27226;DHT22;14732;51.074;3.788;2023-11-19T10:10:51;14.00;99.90
27226;DHT22;14732;51.074;3.788;2023-11-19T10:13:17;14.00;99.90
27226;DHT22;14732;51.074;3.788;2023-11-19T10:15:43;14.00;99.90
27226;DHT22;14732;51.074;3.788;2023-11-19T10:18:09;13.70;99.90
27226;DHT22;14732;51.074;3.788;2023-11-19T10:20:36;13.70;99.90
27226;DHT22;14732;51.074;3.788;2023-11-19T10:23:02;13.60;99.90
27226;DHT22;14732;51.074;3.788;2023-11-19T10:25:29;13.60;99.90
27226;DHT22;14732;51.074;3.788;2023-11-19T10:27:56;13.60;99.90
27226;DHT22;14732;51.074;3.788;2023-11-19T10:33:04;13.50;99.90
27226;DHT22;14732;51.074;3.788;2023-11-19T10:35:50;13.50;99.90
27226;DHT22;14732;51.074;3.788;2023-11-19T10:38:17;13.50;99.90
27226;DHT22;14732;51.074;3.788;2023-11-19T10:40:43;13.70;99.90
27226;DHT22;14732;51.074;3.788;2023-11-19T10:43:09;13.80;99.90
27226;DHT22;14732;51.074;3.788;2023-11-19T10:45:38;14.00;99.90
27226;DHT22;14732;51.074;3.788;2023-11-19T10:48:04;14.00;99.90
27226;DHT22;14732;51.074;3.788;2023-11-19T10:50:34;14.20;99.90
27226;DHT22;14732;51.074;3.788;2023-11-19T10:53:01;14.30;99.90
27226;DHT22;14732;51.074;3.788;2023-11-19T10:55:28;14.40;99.90
27226;DHT22;14732;51.074;3.788;2023-11-19T10:57:59;14.40;99.90
27226;DHT22;14732;51.074;3.788;2023-11-19T11:00:26;14.30;99.90
27226;DHT22;14732;51.074;3.788;2023-11-19T11:02:56;14.30;99.90
27226;DHT22;14732;51.074;3.788;2023-11-19T11:05:26;14.40;99.90
27226;DHT22;14732;51.074;3.788;2023-11-19T11:07:55;14.50;99.90
27226;DHT22;14732;51.074;3.788;2023-11-19T11:10:23;14.60;99.90
27226;DHT22;14732;51.074;3.788;2023-11-19T11:12:52;14.60;99.90
27226;DHT22;14732;51.074;3.788;2023-11-19T11:15:26;14.70;99.90
27226;DHT22;14732;51.074;3.788;2023-11-19T11:18:00;14.80;99.90
27226;DHT22;14732;51.074;3.788;2023-11-19T11:20:32;14.90;99.90
27226;DHT22;14732;51.074;3.788;2023-11-19T11:23:26;15.00;99.90
27226;DHT22;14732;51.074;3.788;2023-11-19T11:28:56;14.70;99.90
27226;DHT22;14732;51.074;3.788;2023-11-19T11:36:33;14.50;99.90
27226;DHT22;14732;51.074;3.788;2023-11-19T11:39:01;14.30;99.90
27226;DHT22;14732;51.074;3.788;2023-11-19T11:41:29;14.20;99.90
27226;DHT22;14732;51.074;3.788;2023-11-19T11:43:56;14.20;99.90
27226;DHT22;14732;51.074;3.788;2023-11-19T11:49:00;14.30;99.90
27226;DHT22;14732;51.074;3.788;2023-11-19T11:54:30;14.30;99.90
27226;DHT22;14732;51.074;3.788;2023-11-19T11:57:13;14.20;99.90
27226;DHT22;14732;51.074;3.788;2023-11-19T12:02:13;14.10;99.90
27226;DHT22;14732;51.074;3.788;2023-11-19T12:04:42;14.00;99.90
27226;DHT22;14732;51.074;3.788;2023-11-19T12:07:12;13.90;99.90
27226;DHT22;14732;51.074;3.788;2023-11-19T12:09:42;14.10;99.90
27226;DHT22;14732;51.074;3.788;2023-11-19T12:20:05;14.40;99.90
27226;DHT22;14732;51.074;3.788;2023-11-19T12:22:39;14.20;99.90
27226;DHT22;14732;51.074;3.788;2023-11-19T12:25:06;14.30;99.90
27226;DHT22;14732;51.074;3.788;2023-11-19T12:29:59;14.50;99.90
27226;DHT22;14732;51.074;3.788;2023-11-19T12:32:25;14.60;99.90
27226;DHT22;14732;51.074;3.788;2023-11-19T12:34:51;14.70;99.90
27226;DHT22;14732;51.074;3.788;2023-11-19T12:37:17;14.60;99.90
27226;DHT22;14732;51.074;3.788;2023-11-19T12:39:42;14.50;99.90
27226;DHT22;14732;51.074;3.788;2023-11-19T12:42:08;14.30;99.90
27226;DHT22;14732;51.074;3.788;2023-11-19T12:44:34;14.10;99.90
27226;DHT22;14732;51.074;3.788;2023-11-19T12:47:04;14.00;99.90
27226;DHT22;14732;51.074;3.788;2023-11-19T12:49:31;13.60;99.90
27226;DHT22;14732;51.074;3.788;2023-11-19T12:51:56;13.40;99.90
27226;DHT22;14732;51.074;3.788;2023-11-19T12:54:35;13.20;99.90
27226;DHT22;14732;51.074;3.788;2023-11-19T12:57:01;13.30;99.90
27226;DHT22;14732;51.074;3.788;2023-11-19T12:59:27;13.40;99.90
27226;DHT22;14732;51.074;3.788;2023-11-19T13:01:59;13.60;99.90
27226;DHT22;14732;51.074;3.788;2023-11-19T13:04:29;13.80;99.90
27226;DHT22;14732;51.074;3.788;2023-11-19T13:06:59;13.80;99.90
27226;DHT22;14732;51.074;3.788;2023-11-19T13:09:28;13.80;99.90
27226;DHT22;14732;51.074;3.788;2023-11-19T13:11:55;13.80;99.90
27226;DHT22;14732;51.074;3.788;2023-11-19T13:14:21;13.80;99.90
27226;DHT22;14732;51.074;3.788;2023-11-19T13:16:47;14.00;99.90
27226;DHT22;14732;51.074;3.788;2023-11-19T13:19:14;14.10;99.90
27226;DHT22;14732;51.074;3.788;2023-11-19T13:21:40;14.00;99.90
27226;DHT22;14732;51.074;3.788;2023-11-19T13:24:06;14.10;99.90
27226;DHT22;14732;51.074;3.788;2023-11-19T13:26:32;14.20;99.90
27226;DHT22;14732;51.074;3.788;2023-11-19T13:28:57;14.10;99.90
27226;DHT22;14732;51.074;3.788;2023-11-19T13:31:23;14.30;99.90
27226;DHT22;14732;51.074;3.788;2023-11-19T13:33:48;14.30;99.90
27226;DHT22;14732;51.074;3.788;2023-11-19T13:36:15;14.20;99.90
27226;DHT22;14732;51.074;3.788;2023-11-19T13:38:40;14.20;99.90
27226;DHT22;14732;51.074;3.788;2023-11-19T13:41:10;14.10;99.90
27226;DHT22;14732;51.074;3.788;2023-11-19T13:43:37;14.20;99.90
27226;DHT22;14732;51.074;3.788;2023-11-19T13:46:03;14.20;99.90
27226;DHT22;14732;51.074;3.788;2023-11-19T13:48:29;14.20;99.90
27226;DHT22;14732;51.074;3.788;2023-11-19T13:50:55;14.30;99.90
27226;DHT22;14732;51.074;3.788;2023-11-19T13:53:21;14.40;99.90
27226;DHT22;14732;51.074;3.788;2023-11-19T13:55:48;14.20;99.90
27226;DHT22;14732;51.074;3.788;2023-11-19T13:58:13;14.30;99.90
27226;DHT22;14732;51.074;3.788;2023-11-19T14:00:39;14.30;99.90
27226;DHT22;14732;51.074;3.788;2023-11-19T14:03:07;14.00;99.90
27226;DHT22;14732;51.074;3.788;2023-11-19T14:05:33;13.70;99.90
27226;DHT22;14732;51.074;3.788;2023-11-19T14:07:58;13.60;99.90
27226;DHT22;14732;51.074;3.788;2023-11-19T14:10:24;13.50;99.90
27226;DHT22;14732;51.074;3.788;2023-11-19T14:12:50;13.50;99.90
27226;DHT22;14732;51.074;3.788;2023-11-19T14:15:15;13.50;99.90
27226;DHT22;14732;51.074;3.788;2023-11-19T14:17:45;13.50;99.90
27226;DHT22;14732;51.074;3.788;2023-11-19T14:20:10;13.40;99.90
27226;DHT22;14732;51.074;3.788;2023-11-19T14:22:41;13.40;99.90
27226;DHT22;14732;51.074;3.788;2023-11-19T14:25:11;13.40;99.90
27226;DHT22;14732;51.074;3.788;2023-11-19T14:27:37;13.30;99.90
27226;DHT22;14732;51.074;3.788;2023-11-19T14:30:05;13.30;99.90
27226;DHT22;14732;51.074;3.788;2023-11-19T14:32:31;13.20;99.90
27226;DHT22;14732;51.074;3.788;2023-11-19T14:34:57;13.20;99.90
27226;DHT22;14732;51.074;3.788;2023-11-19T14:37:23;13.20;99.90
27226;DHT22;14732;51.074;3.788;2023-11-19T14:39:48;13.30;99.90
27226;DHT22;14732;51.074;3.788;2023-11-19T14:42:16;13.30;99.90
27226;DHT22;14732;51.074;3.788;2023-11-19T14:44:42;13.50;99.90
27226;DHT22;14732;51.074;3.788;2023-11-19T14:47:08;13.60;99.90
27226;DHT22;14732;51.074;3.788;2023-11-19T14:49:36;13.60;99.90
27226;DHT22;14732;51.074;3.788;2023-11-19T14:52:05;13.50;99.90
27226;DHT22;14732;51.074;3.788;2023-11-19T14:54:30;13.60;99.90
27226;DHT22;14732;51.074;3.788;2023-11-19T14:56:56;13.60;99.90
27226;DHT22;14732;51.074;3.788;2023-11-19T14:59:22;13.50;99.90
27226;DHT22;14732;51.074;3.788;2023-11-19T15:01:48;13.40;99.90
27226;DHT22;14732;51.074;3.788;2023-11-19T15:04:14;13.40;99.90
27226;DHT22;14732;51.074;3.788;2023-11-19T15:06:39;13.40;99.90
27226;DHT22;14732;51.074;3.788;2023-11-19T15:09:05;13.40;99.90
27226;DHT22;14732;51.074;3.788;2023-11-19T15:11:33;13.50;99.90
27226;DHT22;14732;51.074;3.788;2023-11-19T15:13:59;13.40;99.90
27226;DHT22;14732;51.074;3.788;2023-11-19T15:16:25;13.30;99.90
27226;DHT22;14732;51.074;3.788;2023-11-19T15:18:59;13.40;99.90
27226;DHT22;14732;51.074;3.788;2023-11-19T15:21:28;13.30;99.90
27226;DHT22;14732;51.074;3.788;2023-11-19T15:23:58;13.40;99.90
27226;DHT22;14732;51.074;3.788;2023-11-19T15:26:23;13.30;99.90
27226;DHT22;14732;51.074;3.788;2023-11-19T15:28:49;13.20;99.90
27226;DHT22;14732;51.074;3.788;2023-11-19T15:31:14;13.00;99.90
27226;DHT22;14732;51.074;3.788;2023-11-19T15:33:42;12.90;99.90
27226;DHT22;14732;51.074;3.788;2023-11-19T15:36:08;12.90;99.90
27226;DHT22;14732;51.074;3.788;2023-11-19T15:38:34;12.90;99.90
27226;DHT22;14732;51.074;3.788;2023-11-19T15:41:00;12.80;99.90
27226;DHT22;14732;51.074;3.788;2023-11-19T15:43:26;13.00;99.90
27226;DHT22;14732;51.074;3.788;2023-11-19T15:45:51;13.10;99.90
27226;DHT22;14732;51.074;3.788;2023-11-19T15:48:17;13.40;99.90
27226;DHT22;14732;51.074;3.788;2023-11-19T15:50:43;13.40;99.90
27226;DHT22;14732;51.074;3.788;2023-11-19T15:53:10;13.20;99.90
27226;DHT22;14732;51.074;3.788;2023-11-19T15:55:36;12.90;99.90
27226;DHT22;14732;51.074;3.788;2023-11-19T15:58:01;12.80;99.90